Time;durP1;ratioP1;P1;durP2;ratioP2;P2;SDS_P1;SDS_P2;PMS_P1;PMS_P2;Temp;Humidity;BMP_temperature;BMP_pressure;BME280_temperature;BME280_humidity;BME280_pressure;Samples;Min_cycle;Max_cycle;Signal;HPM_P1;HPM_P2
2023/06/15 00:01:30;;;;;;;8.27;3.83;;;;;;;21.04;38.50;100517.94;4094011;29;20054;-67
2023/06/15 00:03:33;;;;;;;6.25;3.20;;;;;;;21.03;38.63;100524.16;4093088;29;20050;-67
2023/06/15 00:05:37;;;;;;;3.13;2.60;;;;;;;21.02;38.83;100527.69;4098806;29;20035;-67
2023/06/15 00:07:39;;;;;;;5.72;3.40;;;;;;;21.05;38.46;100530.25;4095092;28;20053;-67
2023/06/15 00:09:42;;;;;;;9.07;3.40;;;;;;;21.03;38.57;100525.00;4085724;29;20217;-67
2023/06/15 00:11:47;;;;;;;4.45;2.88;;;;;;;20.98;38.75;100523.41;4096363;29;20039;-67
2023/06/15 00:13:49;;;;;;;8.55;3.60;;;;;;;20.91;38.88;100525.38;4097902;28;20122;-67
2023/06/15 00:15:52;;;;;;;6.85;2.70;;;;;;;20.88;38.86;100523.66;4089657;29;20564;-67
2023/06/15 00:17:55;;;;;;;5.72;3.22;;;;;;;20.90;38.79;100524.47;4094693;29;20054;-67
2023/06/15 00:20:00;;;;;;;7.25;3.30;;;;;;;20.90;38.83;100524.47;4097995;28;20507;-67
2023/06/15 00:22:03;;;;;;;5.43;3.05;;;;;;;20.90;39.16;100523.63;4096592;29;20046;-67
2023/06/15 00:24:06;;;;;;;4.72;3.00;;;;;;;20.87;39.32;100524.56;4094121;29;20412;-67
2023/06/15 00:26:09;;;;;;;5.97;3.03;;;;;;;20.88;39.60;100525.44;4093910;29;20045;-66
2023/06/15 00:28:15;;;;;;;4.10;2.92;;;;;;;20.88;39.35;100522.78;4081629;29;20079;-66
2023/06/15 00:30:19;;;;;;;5.55;3.08;;;;;;;20.86;39.29;100528.13;4073652;29;20515;-66
2023/06/15 00:32:22;;;;;;;;;;;;;;;20.69;39.96;100522.41;4098298;29;20043;-66
2023/06/15 00:34:25;;;;;;;6.13;2.88;;;;;;;20.72;40.08;100533.78;4088763;29;19923;-66
2023/06/15 00:36:28;;;;;;;3.53;2.95;;;;;;;20.70;40.40;100530.31;4095385;28;20562;-66
2023/06/15 00:38:31;;;;;;;6.57;3.28;;;;;;;20.70;40.12;100534.72;4080923;29;20414;-66
2023/06/15 00:40:38;;;;;;;5.35;3.20;;;;;;;20.67;40.02;100533.03;4081062;29;20091;-67
2023/06/15 00:42:41;;;;;;;4.60;2.90;;;;;;;20.66;40.07;100527.75;4096362;28;20414;-66
2023/06/15 00:44:45;;;;;;;4.22;2.97;;;;;;;20.66;40.10;100535.69;4097221;29;20043;-66
2023/06/15 00:46:49;;;;;;;5.30;3.45;;;;;;;20.64;39.71;100530.44;4096493;28;20114;-66
2023/06/15 00:48:52;;;;;;;7.88;3.42;;;;;;;20.69;39.55;100541.78;4097130;28;20043;-66
2023/06/15 00:50:55;;;;;;;5.13;3.10;;;;;;;20.68;39.38;100542.69;4107671;28;20077;-66
2023/06/15 00:53:00;;;;;;;4.05;2.83;;;;;;;20.65;39.65;100553.31;4075289;29;20091;-66
2023/06/15 00:55:03;;;;;;;4.03;2.80;;;;;;;20.63;39.76;100544.53;4095782;29;20051;-66
2023/06/15 00:57:08;;;;;;;6.35;2.97;;;;;;;20.63;39.53;100543.69;4097631;29;20035;-67
2023/06/15 00:59:11;;;;;;;3.80;2.60;;;;;;;20.57;39.87;100544.72;4097026;29;20142;-67
2023/06/15 01:01:15;;;;;;;8.10;3.10;;;;;;;20.54;39.60;100545.66;4094150;28;20047;-67
2023/06/15 01:03:20;;;;;;;6.38;3.47;;;;;;;20.57;39.80;100545.59;4096073;28;20039;-67
2023/06/15 01:05:24;;;;;;;8.80;3.65;;;;;;;20.55;39.61;100550.03;4097869;28;20043;-67
2023/06/15 01:07:27;;;;;;;5.15;3.20;;;;;;;20.55;39.83;100542.13;4096926;28;20650;-67
2023/06/15 01:09:37;;;;;;;7.32;3.45;;;;;;;20.55;39.75;100557.09;4097111;28;20031;-67
2023/06/15 01:11:40;;;;;;;5.28;2.85;;;;;;;20.49;40.09;100544.91;4092140;29;20501;-67
2023/06/15 01:13:45;;;;;;;7.55;3.08;;;;;;;20.53;40.04;100543.94;4096858;29;20051;-67
2023/06/15 01:15:49;;;;;;;;;;;;;;;20.42;40.08;100545.13;4112169;28;20489;-67
2023/06/15 01:17:58;;;;;;;5.13;3.13;;;;;;;20.44;40.17;100540.66;4096527;29;19973;-67
2023/06/15 01:20:05;;;;;;;6.93;3.17;;;;;;;20.41;39.90;100546.88;4094961;28;20138;-67
2023/06/15 01:22:20;;;;;;;6.50;3.25;;;;;;;20.44;40.23;100543.28;4096173;28;20064;-67
2023/06/15 01:24:31;;;;;;;5.10;3.03;;;;;;;20.40;40.10;100539.88;4097552;29;20096;-67
2023/06/15 01:26:38;;;;;;;7.90;3.60;;;;;;;20.46;39.87;100542.34;4111083;28;20061;-67
2023/06/15 01:28:47;;;;;;;7.47;3.60;;;;;;;20.37;40.17;100532.91;4089833;29;20035;-67
2023/06/15 01:30:54;;;;;;;5.45;3.50;;;;;;;20.33;40.28;100541.78;4096987;29;20458;-67
2023/06/15 01:32:57;;;;;;;6.10;3.30;;;;;;;20.27;40.39;100535.78;4097019;29;20043;-67
2023/06/15 01:35:00;;;;;;;8.93;3.65;;;;;;;20.26;40.46;100534.94;4098130;28;20127;-67
2023/06/15 01:37:05;;;;;;;6.10;3.28;;;;;;;20.30;40.53;100527.81;4111650;28;20070;-67
2023/06/15 01:39:08;;;;;;;6.45;3.08;;;;;;;20.25;40.62;100527.06;4113220;28;20182;-67
2023/06/15 01:41:12;;;;;;;5.93;3.65;;;;;;;20.22;41.10;100523.59;4096777;28;20140;-67
2023/06/15 01:43:19;;;;;;;4.22;3.10;;;;;;;20.20;40.83;100527.16;4093515;28;20054;-67
2023/06/15 01:45:22;;;;;;;4.82;2.92;;;;;;;20.14;41.13;100535.25;4095505;28;20047;-67
2023/06/15 01:47:26;;;;;;;6.57;3.30;;;;;;;20.18;41.50;100536.88;4110252;28;20045;-67
2023/06/15 01:49:29;;;;;;;4.63;3.22;;;;;;;20.19;41.29;100538.63;4096066;28;20377;-67
2023/06/15 01:51:33;;;;;;;4.93;3.05;;;;;;;20.13;41.51;100533.50;4096891;28;20457;-67
2023/06/15 01:53:37;;;;;;;4.00;3.08;;;;;;;20.07;41.77;100539.78;4108346;28;20405;-67
2023/06/15 01:55:40;;;;;;;4.15;2.85;;;;;;;20.08;41.89;100540.66;4093846;28;20039;-67
2023/06/15 01:57:44;;;;;;;7.05;3.25;;;;;;;19.99;42.19;100541.72;4095215;28;20043;-67
2023/06/15 01:59:48;;;;;;;5.05;3.35;;;;;;;19.96;42.83;100536.53;4110853;28;20055;-67
2023/06/15 02:01:51;;;;;;;8.73;3.50;;;;;;;19.83;43.31;100544.75;4111464;28;20043;-67
2023/06/15 02:03:54;;;;;;;5.20;3.00;;;;;;;19.80;43.56;100539.53;4096205;29;20039;-67
2023/06/15 02:05:57;;;;;;;5.70;3.50;;;;;;;19.70;43.51;100546.75;4096913;29;20062;-67
2023/06/15 02:08:00;;;;;;;4.30;3.30;;;;;;;19.66;43.98;100539.81;4097269;28;20035;-68
2023/06/15 02:10:04;;;;;;;7.80;3.00;;;;;;;19.58;44.03;100541.75;4093285;29;20031;-67
2023/06/15 02:12:08;;;;;;;6.67;3.00;;;;;;;19.59;44.12;100542.63;4096874;28;20045;-67
2023/06/15 02:14:11;;;;;;;4.22;3.22;;;;;;;19.51;44.23;100543.66;4091797;29;20290;-67
2023/06/15 02:16:15;;;;;;;6.53;3.60;;;;;;;19.52;44.18;100541.88;4081100;29;20103;-67
2023/06/15 02:18:18;;;;;;;7.28;3.60;;;;;;;19.51;44.51;100546.28;4092247;29;20470;-67
2023/06/15 02:20:21;;;;;;;5.15;3.00;;;;;;;19.46;44.25;100537.59;4078855;29;20036;-66
2023/06/15 02:22:25;;;;;;;8.25;3.65;;;;;;;19.45;44.88;100542.91;4087727;29;20357;-67
2023/06/15 02:24:28;;;;;;;5.78;3.30;;;;;;;19.39;44.44;100543.94;4090485;28;20040;-66
2023/06/15 02:26:31;;;;;;;5.00;3.30;;;;;;;19.38;44.77;100541.28;4086802;29;20401;-66
2023/06/15 02:28:34;;;;;;;3.65;2.65;;;;;;;19.38;44.91;100539.53;4112322;28;20054;-66
2023/06/15 02:30:39;;;;;;;;;;;;;;;19.26;45.11;100545.94;4095565;28;20045;-66
2023/06/15 02:32:46;;;;;;;10.63;3.35;;;;;;;19.29;45.33;100547.63;4096397;29;19997;-66
2023/06/15 02:34:50;;;;;;;5.05;3.08;;;;;;;19.28;44.98;100546.75;4097386;28;20051;-66
2023/06/15 02:36:54;;;;;;;4.67;2.97;;;;;;;19.29;45.39;100556.41;4096374;29;20130;-66
2023/06/15 02:38:57;;;;;;;7.03;3.03;;;;;;;19.35;45.00;100556.28;4096474;29;20295;-66
2023/06/15 02:40:59;;;;;;;7.30;3.85;;;;;;;19.29;45.80;100556.41;4091713;28;20079;-67
2023/06/15 02:43:02;;;;;;;6.88;3.25;;;;;;;19.18;45.50;100553.97;4095786;29;20509;-66
2023/06/15 02:45:07;;;;;;;5.32;3.20;;;;;;;19.16;45.60;100554.94;4080753;29;20538;-67
2023/06/15 02:47:11;;;;;;;4.80;3.00;;;;;;;19.07;46.00;100555.97;4088523;28;20035;-66
2023/06/15 02:49:18;;;;;;;5.82;3.47;;;;;;;19.07;45.64;100561.25;4107075;28;20038;-66
2023/06/15 02:51:21;;;;;;;5.43;3.30;;;;;;;19.14;45.88;100562.88;4112101;28;20035;-67
2023/06/15 02:53:24;;;;;;;7.68;3.60;;;;;;;19.06;46.22;100564.78;4096584;29;20501;-66
2023/06/15 02:55:32;;;;;;;7.47;3.50;;;;;;;18.95;46.14;100567.63;4107623;28;20043;-66
2023/06/15 02:57:36;;;;;;;4.20;3.13;;;;;;;18.95;46.44;100577.28;4108299;28;20047;-66
2023/06/15 02:59:51;;;;;;;6.28;3.58;;;;;;;18.97;46.47;100567.59;4096152;29;20091;-66
2023/06/15 03:01:55;;;;;;;;;;;;;;;18.78;46.82;100570.53;4096495;29;20039;-67
2023/06/15 03:03:58;;;;;;;7.93;3.08;;;;;;;18.71;46.92;100578.56;4095366;29;20024;-66
2023/06/15 03:06:08;;;;;;;7.00;3.33;;;;;;;18.81;46.55;100575.72;4101303;28;20039;-66
2023/06/15 03:08:13;;;;;;;5.90;3.05;;;;;;;18.76;46.67;100576.72;4097691;28;20070;-67
2023/06/15 03:10:36;;;;;;;5.88;2.92;;;;;;;18.69;46.78;100581.22;4090055;28;20054;-66
2023/06/15 03:12:39;;;;;;;9.43;3.22;;;;;;;18.64;46.80;100590.97;4080343;29;20047;-67
2023/06/15 03:14:44;;;;;;;8.85;3.60;;;;;;;18.60;47.31;100586.63;4095668;28;20039;-68
2023/06/15 03:16:48;;;;;;;4.97;3.40;;;;;;;18.44;47.73;100592.19;4086062;29;20130;-67
2023/06/15 03:18:52;;;;;;;4.00;3.05;;;;;;;18.41;47.61;100589.59;4109589;28;20130;-67
2023/06/15 03:20:57;;;;;;;4.20;2.92;;;;;;;18.41;47.94;100589.59;4079334;29;20039;-67
2023/06/15 03:23:01;;;;;;;8.23;3.30;;;;;;;18.33;47.82;100596.75;4092478;29;20046;-67
2023/06/15 03:25:05;;;;;;;5.80;3.40;;;;;;;18.29;48.31;100592.41;4110323;28;20098;-67
2023/06/15 03:27:10;;;;;;;6.30;3.05;;;;;;;18.30;48.44;100597.66;4093588;29;21742;-60
2023/06/15 03:29:14;;;;;;;6.72;3.40;;;;;;;18.41;48.10;100600.13;4095843;29;20469;-60
2023/06/15 03:31:18;;;;;;;;;;;;;;;18.34;48.26;100600.22;4094402;28;20138;-61
2023/06/15 03:33:24;;;;;;;5.60;4.00;;;;;;;18.26;48.77;100601.22;4092017;28;19973;-61
2023/06/15 03:35:27;;;;;;;8.20;3.70;;;;;;;18.24;48.66;100605.63;4096334;29;20043;-61
2023/06/15 03:37:30;;;;;;;5.78;3.42;;;;;;;18.22;48.90;100590.75;4110834;28;20125;-61
2023/06/15 03:39:36;;;;;;;8.15;3.88;;;;;;;18.20;49.27;100603.94;4111992;28;20103;-61
2023/06/15 03:41:39;;;;;;;5.93;3.47;;;;;;;18.21;49.14;100607.44;4113257;28;20134;-61
2023/06/15 03:43:43;;;;;;;8.65;3.42;;;;;;;18.22;49.09;100601.28;4098457;29;20035;-61
2023/06/15 03:45:46;;;;;;;7.03;3.33;;;;;;;18.20;48.99;100608.34;4110464;28;20587;-61
2023/06/15 03:47:48;;;;;;;6.75;3.40;;;;;;;18.27;49.07;100604.72;4088174;29;20040;-61
2023/06/15 03:49:51;;;;;;;6.65;3.22;;;;;;;18.38;48.79;100615.09;4112038;28;20074;-61
2023/06/15 03:51:54;;;;;;;10.57;4.35;;;;;;;18.39;48.67;100620.31;4083265;29;20055;-60
2023/06/15 03:53:57;;;;;;;5.30;3.40;;;;;;;18.35;48.73;100613.34;4098176;29;20039;-61
2023/06/15 03:56:02;;;;;;;5.70;3.42;;;;;;;18.43;48.82;100619.38;4080799;29;20048;-61
2023/06/15 03:58:05;;;;;;;8.35;3.65;;;;;;;18.39;48.75;100608.94;4113669;28;20035;-61
2023/06/15 04:00:09;;;;;;;8.18;3.58;;;;;;;18.39;49.00;100616.81;4097046;29;20082;-61
2023/06/15 04:02:14;;;;;;;4.90;2.83;;;;;;;18.35;49.01;100616.00;4097622;29;20418;-60
2023/06/15 04:04:17;;;;;;;6.28;3.40;;;;;;;18.47;48.98;100618.44;4098094;28;20052;-61
2023/06/15 04:06:22;;;;;;;6.88;3.70;;;;;;;18.47;49.00;100623.72;4114170;28;20138;-61
2023/06/15 04:08:26;;;;;;;9.65;3.83;;;;;;;18.41;49.17;100617.66;4109793;28;20130;-61
2023/06/15 04:10:29;;;;;;;7.10;3.75;;;;;;;18.44;49.31;100618.50;4094100;28;20122;-60
2023/06/15 04:12:33;;;;;;;6.03;3.53;;;;;;;18.51;48.72;100621.88;4096733;28;20047;-60
2023/06/15 04:14:36;;;;;;;7.97;3.70;;;;;;;18.41;49.00;100613.28;4098535;29;20050;-61
2023/06/15 04:16:39;;;;;;;6.18;3.33;;;;;;;18.38;49.14;100623.84;4096591;28;20077;-61
2023/06/15 04:18:43;;;;;;;6.13;3.80;;;;;;;18.35;49.28;100630.94;4095811;28;20035;-60
2023/06/15 04:20:46;;;;;;;12.07;3.67;;;;;;;18.36;49.42;100630.03;4094878;29;20091;-60
2023/06/15 04:22:49;;;;;;;5.82;3.65;;;;;;;18.41;49.28;100629.09;4098650;28;20650;-60
2023/06/15 04:24:52;;;;;;;5.75;3.92;;;;;;;18.47;49.37;100634.25;4097863;29;20401;-60
2023/06/15 04:26:57;;;;;;;10.27;4.72;;;;;;;18.50;49.81;100633.34;4082231;29;20413;-60
2023/06/15 04:29:02;;;;;;;9.80;3.90;;;;;;;18.45;49.34;100636.00;4096332;29;20043;-60
2023/06/15 04:31:09;;;;;;;8.23;3.78;;;;;;;18.37;49.29;100645.81;4098306;29;20047;-60
2023/06/15 04:33:13;;;;;;;8.38;3.88;;;;;;;18.48;49.37;100643.00;4097827;29;20040;-60
2023/06/15 04:35:18;;;;;;;;;;;;;;;18.54;49.16;100647.31;4082166;29;20103;-60
2023/06/15 04:37:23;;;;;;;5.97;4.07;;;;;;;18.54;49.22;100640.25;4099014;28;20001;-60
2023/06/15 04:39:27;;;;;;;8.52;4.22;;;;;;;18.61;49.27;100649.81;4111888;28;20587;-61
2023/06/15 04:41:35;;;;;;;4.55;3.13;;;;;;;18.56;49.01;100642.88;4094472;28;20046;-60
2023/06/15 04:43:40;;;;;;;7.28;3.78;;;;;;;18.62;48.46;100648.91;4093128;28;20098;-60
2023/06/15 04:45:45;;;;;;;8.30;3.97;;;;;;;18.59;48.13;100648.13;4094371;29;20276;-60
2023/06/15 04:47:53;;;;;;;7.03;4.03;;;;;;;18.61;48.41;100649.81;4095904;28;20049;-60
2023/06/15 04:49:57;;;;;;;10.90;4.07;;;;;;;18.72;47.87;100649.66;4110699;28;20039;-60
2023/06/15 04:52:00;;;;;;;6.55;3.90;;;;;;;18.80;47.68;100649.50;4096267;29;20046;-61
2023/06/15 04:54:04;;;;;;;8.00;3.72;;;;;;;18.77;48.25;100653.06;4097765;29;20066;-60
2023/06/15 04:56:07;;;;;;;7.57;4.05;;;;;;;18.91;48.11;100649.34;4086205;28;20452;-60
2023/06/15 04:58:17;;;;;;;6.75;4.10;;;;;;;19.00;47.44;100647.44;4096099;29;20051;-61
2023/06/15 05:00:21;;;;;;;11.10;4.18;;;;;;;18.99;47.97;100647.47;4094400;28;20047;-61
2023/06/15 05:02:31;;;;;;;12.90;4.63;;;;;;;19.08;47.25;100647.28;4109983;28;20551;-60
2023/06/15 05:04:34;;;;;;;;;;;;;;;19.04;47.19;100652.66;4096049;28;20031;-61
2023/06/15 05:06:37;;;;;;;10.73;4.28;;;;;;;19.01;46.84;100650.94;4122466;23;20328;-61
2023/06/15 05:08:40;;;;;;;8.43;4.20;;;;;;;19.12;46.78;100654.25;4114442;28;20587;-61
2023/06/15 05:10:43;;;;;;;5.63;3.75;;;;;;;19.13;46.81;100652.50;4096984;29;20074;-61
2023/06/15 05:12:51;;;;;;;9.10;4.82;;;;;;;19.20;46.19;100648.81;4114277;28;20042;-66
2023/06/15 05:14:55;;;;;;;6.17;4.13;;;;;;;19.09;46.32;100651.69;4107108;28;20118;-66
2023/06/15 05:17:03;;;;;;;9.43;4.55;;;;;;;19.04;46.45;100653.53;4093727;28;20042;-66
2023/06/15 05:19:07;;;;;;;9.65;4.75;;;;;;;19.19;46.25;100658.50;4112102;28;20039;-65
2023/06/15 05:21:12;;;;;;;10.95;4.85;;;;;;;19.29;46.22;100656.59;4109573;28;20043;-65
2023/06/15 05:23:18;;;;;;;9.20;4.60;;;;;;;19.29;46.50;100660.97;4096918;29;20075;-65
2023/06/15 05:25:22;;;;;;;10.98;4.53;;;;;;;19.35;45.90;100661.75;4110430;28;20038;-66
2023/06/15 05:27:25;;;;;;;13.20;4.90;;;;;;;19.36;46.71;100667.88;4109062;28;20512;-66
2023/06/15 05:29:29;;;;;;;13.05;4.13;;;;;;;19.43;46.52;100660.72;4092715;29;20051;-65
2023/06/15 05:31:33;;;;;;;8.00;4.30;;;;;;;19.50;46.31;100659.72;4099000;28;20151;-65
2023/06/15 05:33:36;;;;;;;10.57;4.35;;;;;;;19.59;46.29;100664.78;4097053;29;20031;-66
2023/06/15 05:35:41;;;;;;;7.65;3.90;;;;;;;19.65;45.02;100663.81;4095151;28;20058;-65
2023/06/15 05:37:44;;;;;;;8.70;4.00;;;;;;;19.70;45.29;100657.53;4110293;28;20031;-66
2023/06/15 05:39:47;;;;;;;7.07;4.13;;;;;;;19.79;44.81;100666.22;4113057;28;20093;-66
2023/06/15 05:41:51;;;;;;;6.45;3.63;;;;;;;19.85;44.64;100660.78;4112739;28;20047;-65
2023/06/15 05:43:54;;;;;;;5.50;3.72;;;;;;;20.02;44.58;100668.38;4112325;28;20117;-65
2023/06/15 05:45:57;;;;;;;6.13;4.00;;;;;;;19.94;45.09;100665.88;4096655;28;20067;-66
2023/06/15 05:48:00;;;;;;;9.20;3.95;;;;;;;19.96;44.28;100669.34;4108860;28;20039;-66
2023/06/15 05:50:05;;;;;;;8.63;4.13;;;;;;;20.06;43.94;100672.66;4106970;28;20109;-65
2023/06/15 05:52:10;;;;;;;6.20;3.80;;;;;;;20.04;44.39;100666.53;4095604;29;20208;-65
2023/06/15 05:54:13;;;;;;;9.82;3.33;;;;;;;20.05;44.33;100670.94;4112317;28;20039;-65
2023/06/15 05:56:16;;;;;;;3.95;2.83;;;;;;;20.15;44.83;100675.09;4096066;28;20102;-65
2023/06/15 05:58:19;;;;;;;6.82;3.97;;;;;;;20.33;44.09;100676.44;4108294;28;20106;-66
2023/06/15 06:00:25;;;;;;;7.07;3.35;;;;;;;20.37;43.86;100679.88;4110912;28;20523;-66
2023/06/15 06:02:32;;;;;;;6.82;3.80;;;;;;;20.36;43.63;100686.09;4092111;29;20042;-66
2023/06/15 06:04:35;;;;;;;4.68;3.25;;;;;;;20.34;43.67;100677.31;4110905;28;20440;-65
2023/06/15 06:06:38;;;;;;;6.45;3.75;;;;;;;20.42;44.21;100678.00;4112297;28;20054;-66
2023/06/15 06:08:42;;;;;;;5.68;3.58;;;;;;;20.64;42.90;100677.50;4112763;28;20381;-66
2023/06/15 06:10:45;;;;;;;4.35;3.28;;;;;;;20.62;43.73;100681.94;4105086;28;20074;-66
2023/06/15 06:13:09;;;;;;;5.35;3.45;;;;;;;20.70;43.62;100688.81;4095909;29;20043;-65
2023/06/15 06:15:12;;;;;;;8.10;3.50;;;;;;;20.77;43.44;100689.56;4096102;29;20054;-66
2023/06/15 06:17:14;;;;;;;4.80;2.90;;;;;;;20.87;43.53;100685.78;4112975;28;20400;-65
2023/06/15 06:19:38;;;;;;;9.00;3.35;;;;;;;21.04;42.56;100682.72;4096410;29;20098;-66
2023/06/15 06:21:40;;;;;;;5.07;3.08;;;;;;;21.15;42.61;100693.00;4096400;29;20126;-66
2023/06/15 06:23:45;;;;;;;4.60;3.22;;;;;;;21.19;42.16;100686.72;4096498;29;20044;-66
2023/06/15 06:25:48;;;;;;;4.22;3.13;;;;;;;21.21;42.88;100690.19;4112668;28;20049;-66
2023/06/15 06:27:51;;;;;;;3.75;2.90;;;;;;;21.41;41.19;100688.81;4112137;28;20042;-65
2023/06/15 06:29:54;;;;;;;4.68;2.80;;;;;;;21.29;41.94;100687.34;4113197;28;20142;-66
2023/06/15 06:31:57;;;;;;;6.10;3.20;;;;;;;21.38;42.10;100691.53;4112259;28;20073;-66
2023/06/15 06:33:59;;;;;;;9.70;3.58;;;;;;;21.42;42.39;100690.53;4110608;28;20038;-65
2023/06/15 06:36:02;;;;;;;5.88;3.30;;;;;;;21.50;41.46;100693.84;4094780;28;20501;-66
2023/06/15 06:38:05;;;;;;;4.20;3.15;;;;;;;21.56;41.42;100698.97;4096138;29;20078;-66
2023/06/15 06:40:10;;;;;;;5.35;2.90;;;;;;;21.64;41.45;100687.31;4112833;28;20489;-66
2023/06/15 06:42:13;;;;;;;4.18;2.63;;;;;;;21.69;41.63;100688.06;4113418;28;20093;-66
2023/06/15 06:44:16;;;;;;;5.15;3.47;;;;;;;21.78;41.57;100693.09;4113139;28;20139;-66
2023/06/15 06:46:22;;;;;;;7.32;3.40;;;;;;;21.93;40.78;100690.00;4112622;28;20133;-66
2023/06/15 06:48:25;;;;;;;4.88;3.35;;;;;;;21.95;40.17;100693.47;4111865;28;20061;-66
2023/06/15 06:50:28;;;;;;;6.60;2.72;;;;;;;21.92;40.64;100688.28;4109747;28;20133;-66
2023/06/15 06:52:31;;;;;;;4.53;3.40;;;;;;;22.08;40.41;100687.81;4113270;28;20035;-66
2023/06/15 06:54:34;;;;;;;4.38;3.10;;;;;;;22.06;40.46;100692.28;4096055;29;20038;-66
2023/06/15 06:56:38;;;;;;;4.95;3.45;;;;;;;21.97;40.73;100696.94;4096135;28;20581;-64
2023/06/15 06:58:41;;;;;;;8.45;3.80;;;;;;;21.94;40.83;100698.81;4113045;28;20038;-64
2023/06/15 07:00:44;;;;;;;4.53;3.20;;;;;;;22.00;41.05;100693.31;4112827;28;20038;-64
2023/06/15 07:02:47;;;;;;;6.40;3.42;;;;;;;22.12;41.33;100700.03;4113149;28;20046;-64
2023/06/15 07:04:49;;;;;;;3.67;2.60;;;;;;;22.15;41.10;100694.63;4113296;28;20062;-64
2023/06/15 07:06:52;;;;;;;5.22;3.35;;;;;;;22.21;40.44;100696.25;4112533;28;20093;-64
2023/06/15 07:08:55;;;;;;;4.05;3.10;;;;;;;22.44;39.72;100699.09;4111627;28;20420;-64
2023/06/15 07:10:58;;;;;;;4.25;2.75;;;;;;;22.36;40.04;100700.25;4112975;28;20122;-64
2023/06/15 07:13:02;;;;;;;8.40;3.13;;;;;;;22.42;39.81;100697.41;4113642;28;20395;-64
2023/06/15 07:15:10;;;;;;;4.38;3.33;;;;;;;22.56;39.35;100697.84;4113394;28;20066;-65
2023/06/15 07:17:13;;;;;;;7.03;3.28;;;;;;;22.62;39.21;100697.66;4113310;28;20062;-64
2023/06/15 07:19:16;;;;;;;4.43;3.00;;;;;;;22.47;38.78;100695.47;4084548;29;20134;-65
2023/06/15 07:21:18;;;;;;;4.38;3.20;;;;;;;22.44;39.56;100700.88;4109901;28;20158;-65
2023/06/15 07:23:22;;;;;;;6.38;3.30;;;;;;;22.66;39.11;100701.94;4111686;28;20049;-65
2023/06/15 07:25:25;;;;;;;6.07;3.40;;;;;;;22.54;39.34;100704.09;4112253;28;20413;-65
2023/06/15 07:27:28;;;;;;;5.65;3.33;;;;;;;22.56;39.61;100699.59;4113008;28;20159;-64
2023/06/15 07:29:32;;;;;;;4.75;3.03;;;;;;;22.67;39.88;100706.28;4109875;28;20492;-65
2023/06/15 07:31:35;;;;;;;6.10;2.90;;;;;;;22.82;39.18;100706.72;4093134;28;20040;-65
2023/06/15 07:33:38;;;;;;;4.20;3.03;;;;;;;22.97;39.48;100698.28;4112029;28;20485;-65
2023/06/15 07:35:41;;;;;;;5.28;3.30;;;;;;;23.08;38.90;100702.34;4094099;29;20055;-65
2023/06/15 07:37:43;;;;;;;10.55;3.92;;;;;;;23.25;37.94;100704.47;4110370;28;20066;-65
2023/06/15 07:39:46;;;;;;;4.20;2.72;;;;;;;23.21;38.15;100695.72;4109758;28;20062;-65
2023/06/15 07:41:49;;;;;;;7.03;3.13;;;;;;;23.27;37.91;100690.19;4095671;29;20142;-65
2023/06/15 07:43:52;;;;;;;5.45;3.55;;;;;;;23.37;37.44;100692.56;4110758;28;20049;-65
2023/06/15 07:45:56;;;;;;;5.63;3.60;;;;;;;23.46;37.19;100692.22;4113371;28;20500;-65
2023/06/15 07:47:59;;;;;;;;;;;;;;;23.65;36.44;100687.09;4113597;28;20039;-66
2023/06/15 07:50:02;;;;;;;11.07;3.58;;;;;;;23.41;37.01;100691.50;4108222;28;19922;-65
2023/06/15 07:52:06;;;;;;;5.72;3.53;;;;;;;23.48;36.69;100698.31;4112418;28;20042;-66
2023/06/15 07:54:12;;;;;;;5.43;3.58;;;;;;;23.34;37.03;100694.38;4095534;29;20039;-65
2023/06/15 07:56:15;;;;;;;5.75;3.67;;;;;;;23.45;37.36;100686.06;4109963;28;20130;-65
2023/06/15 07:58:18;;;;;;;7.03;3.58;;;;;;;23.57;36.99;100690.03;4110506;28;20035;-65
2023/06/15 08:00:22;;;;;;;5.80;3.28;;;;;;;23.55;37.46;100680.41;4111076;28;20050;-66
2023/06/15 08:02:35;;;;;;;12.30;3.60;;;;;;;23.63;37.51;100684.50;4112946;28;20047;-66
2023/06/15 08:04:37;;;;;;;;;;;;;;;23.76;37.49;100681.38;4111308;28;20042;-66
2023/06/15 08:06:40;;;;;;;8.68;4.07;;;;;;;23.91;36.16;100688.81;4112308;28;19926;-66
2023/06/15 08:08:44;;;;;;;11.20;3.70;;;;;;;23.90;36.50;100681.78;4111827;28;20409;-66
2023/06/15 08:10:47;;;;;;;8.63;3.97;;;;;;;24.00;34.97;100682.28;4112321;28;20042;-65
2023/06/15 08:12:50;;;;;;;4.78;3.35;;;;;;;23.82;35.53;100676.72;4112663;28;20448;-66
2023/06/15 08:14:54;;;;;;;3.58;2.50;;;;;;;23.92;36.05;100673.75;4112947;28;20046;-66
2023/06/15 08:16:57;;;;;;;4.57;3.15;;;;;;;23.99;36.20;100672.59;4093195;29;20042;-66
2023/06/15 08:19:01;;;;;;;4.13;2.88;;;;;;;24.09;36.50;100670.44;4113457;28;20062;-66
2023/06/15 08:21:04;;;;;;;5.47;3.38;;;;;;;24.35;35.72;100678.25;4115324;28;20481;-66
2023/06/15 08:23:07;;;;;;;5.03;3.08;;;;;;;24.35;34.95;100672.94;4115015;28;20097;-66
2023/06/15 08:25:12;;;;;;;6.37;3.53;;;;;;;24.34;34.87;100676.53;4114401;28;20060;-67
2023/06/15 08:27:15;;;;;;;4.35;3.20;;;;;;;24.25;35.45;100676.03;4113817;28;20042;-66
2023/06/15 08:29:19;;;;;;;6.67;3.60;;;;;;;24.31;35.67;100681.97;4114377;28;20551;-66
2023/06/15 08:31:26;;;;;;;7.47;3.47;;;;;;;24.58;34.47;100673.81;4111260;28;20118;-66
2023/06/15 08:33:29;;;;;;;7.25;3.60;;;;;;;24.53;34.46;100681.09;4114607;28;20046;-66
2023/06/15 08:35:33;;;;;;;6.50;3.78;;;;;;;24.50;35.12;100676.78;4115471;28;20082;-66
2023/06/15 08:37:36;;;;;;;7.00;3.33;;;;;;;24.43;35.18;100669.09;4109120;28;20133;-66
2023/06/15 08:39:39;;;;;;;6.70;3.65;;;;;;;24.57;35.43;100675.63;4115169;28;20051;-66
2023/06/15 08:41:45;;;;;;;7.90;4.05;;;;;;;24.79;34.08;100676.53;4115705;28;20043;-67
2023/06/15 08:43:53;;;;;;;9.73;4.40;;;;;;;24.89;32.87;100681.41;4114891;28;21302;-67
2023/06/15 08:45:59;;;;;;;5.93;3.58;;;;;;;24.61;33.49;100672.88;4114534;28;20127;-66
2023/06/15 08:48:05;;;;;;;5.82;3.25;;;;;;;24.64;34.28;100678.91;4115132;28;20038;-66
2023/06/15 08:50:09;;;;;;;5.88;3.22;;;;;;;24.76;34.17;100672.22;4113221;28;20054;-66
2023/06/15 08:52:20;;;;;;;4.97;3.30;;;;;;;24.91;33.72;100678.69;4098403;28;20510;-67
2023/06/15 08:54:27;;;;;;;7.47;3.97;;;;;;;24.87;34.24;100669.13;4114533;28;20499;-66
2023/06/15 08:56:31;;;;;;;8.50;3.88;;;;;;;24.96;33.84;100673.19;4111721;28;20045;-66
2023/06/15 08:58:34;;;;;;;;;;;;;;;24.89;34.41;100668.09;4115460;28;20143;-67
2023/06/15 09:00:37;;;;;;;8.65;4.07;;;;;;;25.16;33.08;100670.53;4109384;28;19946;-67
2023/06/15 09:02:46;;;;;;;4.78;3.47;;;;;;;25.09;32.86;100666.41;4115029;28;20047;-66
2023/06/15 09:04:50;;;;;;;4.43;3.35;;;;;;;25.10;32.96;100665.47;4114486;28;20069;-67
2023/06/15 09:07:00;;;;;;;4.78;3.58;;;;;;;25.09;33.48;100661.09;4109847;28;20153;-67
2023/06/15 09:09:04;;;;;;;6.43;3.95;;;;;;;25.12;33.18;100663.63;4114733;28;20579;-67
2023/06/15 09:11:09;;;;;;;9.15;3.75;;;;;;;25.17;34.10;100661.59;4114808;28;20118;-67
2023/06/15 09:13:17;;;;;;;4.68;3.15;;;;;;;25.26;32.82;100663.00;4113349;28;20560;-66
2023/06/15 09:15:21;;;;;;;6.43;3.30;;;;;;;25.34;32.97;100666.22;4111993;28;20109;-67
2023/06/15 09:17:28;;;;;;;6.35;4.28;;;;;;;25.56;32.71;100668.78;4111483;28;20039;-67
2023/06/15 09:19:37;;;;;;;7.90;3.33;;;;;;;25.46;32.76;100666.63;4114601;28;20750;-67
2023/06/15 09:21:41;;;;;;;5.38;3.38;;;;;;;25.56;31.90;100663.47;4113461;28;20499;-67
2023/06/15 09:23:46;;;;;;;5.78;3.35;;;;;;;25.59;31.76;100668.66;4114256;28;20045;-67
2023/06/15 09:25:52;;;;;;;6.40;3.10;;;;;;;25.76;30.71;100664.38;4114368;28;20035;-67
2023/06/15 09:27:56;;;;;;;6.03;3.10;;;;;;;25.55;30.64;100653.78;4110226;28;20493;-67
2023/06/15 09:30:03;;;;;;;5.38;2.65;;;;;;;25.61;31.22;100655.25;4112212;28;20066;-67
2023/06/15 09:32:07;;;;;;;4.78;3.10;;;;;;;25.78;30.83;100655.34;4114717;28;20556;-67
2023/06/15 09:34:12;;;;;;;5.45;3.40;;;;;;;25.91;30.58;100649.47;4114003;28;20099;-68
2023/06/15 09:36:15;;;;;;;3.70;3.28;;;;;;;25.99;30.70;100657.09;4097067;28;20047;-67
2023/06/15 09:38:18;;;;;;;5.88;3.17;;;;;;;26.02;31.11;100649.00;4094765;29;20070;-67
2023/06/15 09:40:21;;;;;;;4.82;2.90;;;;;;;26.21;30.24;100654.28;4114324;28;20424;-66